sensor_id;sensor_type;location;lat;lon;timestamp;P1;durP1;ratioP1;P2;durP2;ratioP2
11588;SDS011;5850;51.360;12.362;2023-03-20T00:02:21;2.47;;;2.20;;
11588;SDS011;5850;51.360;12.362;2023-03-20T00:04:50;2.67;;;2.47;;
11588;SDS011;5850;51.360;12.362;2023-03-20T00:07:18;3.87;;;2.60;;
11588;SDS011;5850;51.360;12.362;2023-03-20T00:09:47;3.93;;;2.50;;
11588;SDS011;5850;51.360;12.362;2023-03-20T00:12:17;4.07;;;2.73;;
11588;SDS011;5850;51.360;12.362;2023-03-20T00:14:50;2.90;;;2.60;;
11588;SDS011;5850;51.360;12.362;2023-03-20T00:17:19;3.67;;;2.87;;
11588;SDS011;5850;51.360;12.362;2023-03-20T00:19:48;2.80;;;2.30;;
11588;SDS011;5850;51.360;12.362;2023-03-20T00:22:17;4.57;;;2.50;;
11588;SDS011;5850;51.360;12.362;2023-03-20T00:24:48;2.90;;;2.40;;
11588;SDS011;5850;51.360;12.362;2023-03-20T00:27:16;3.30;;;2.40;;
11588;SDS011;5850;51.360;12.362;2023-03-20T00:29:48;2.80;;;2.60;;
11588;SDS011;5850;51.360;12.362;2023-03-20T00:32:19;2.50;;;2.30;;
11588;SDS011;5850;51.360;12.362;2023-03-20T00:34:48;2.43;;;2.23;;
11588;SDS011;5850;51.360;12.362;2023-03-20T00:37:16;2.60;;;2.40;;
11588;SDS011;5850;51.360;12.362;2023-03-20T00:39:44;2.63;;;2.40;;
11588;SDS011;5850;51.360;12.362;2023-03-20T00:42:18;2.87;;;2.57;;
11588;SDS011;5850;51.360;12.362;2023-03-20T00:44:49;3.57;;;2.57;;
11588;SDS011;5850;51.360;12.362;2023-03-20T00:47:21;2.80;;;2.30;;
11588;SDS011;5850;51.360;12.362;2023-03-20T00:49:52;2.73;;;2.47;;
11588;SDS011;5850;51.360;12.362;2023-03-20T00:52:23;4.23;;;2.73;;
11588;SDS011;5850;51.360;12.362;2023-03-20T00:54:52;2.73;;;2.47;;
11588;SDS011;5850;51.360;12.362;2023-03-20T00:57:27;2.63;;;2.30;;
11588;SDS011;5850;51.360;12.362;2023-03-20T01:00:04;2.90;;;2.60;;
11588;SDS011;5850;51.360;12.362;2023-03-20T01:02:39;2.80;;;2.43;;
11588;SDS011;5850;51.360;12.362;2023-03-20T01:05:08;2.60;;;2.40;;
11588;SDS011;5850;51.360;12.362;2023-03-20T01:07:38;3.57;;;2.80;;
11588;SDS011;5850;51.360;12.362;2023-03-20T01:10:08;3.00;;;2.70;;
11588;SDS011;5850;51.360;12.362;2023-03-20T01:12:38;3.57;;;2.90;;
11588;SDS011;5850;51.360;12.362;2023-03-20T01:15:14;3.60;;;2.43;;
11588;SDS011;5850;51.360;12.362;2023-03-20T01:17:52;3.20;;;2.80;;
11588;SDS011;5850;51.360;12.362;2023-03-20T01:20:25;3.10;;;2.50;;
11588;SDS011;5850;51.360;12.362;2023-03-20T01:22:56;2.93;;;2.43;;
11588;SDS011;5850;51.360;12.362;2023-03-20T01:25:24;3.67;;;2.70;;
11588;SDS011;5850;51.360;12.362;2023-03-20T01:27:53;3.37;;;2.80;;
11588;SDS011;5850;51.360;12.362;2023-03-20T01:30:24;4.20;;;2.87;;
11588;SDS011;5850;51.360;12.362;2023-03-20T01:32:55;2.80;;;2.60;;
11588;SDS011;5850;51.360;12.362;2023-03-20T01:35:25;4.93;;;2.93;;
11588;SDS011;5850;51.360;12.362;2023-03-20T01:37:54;3.30;;;2.83;;
11588;SDS011;5850;51.360;12.362;2023-03-20T01:40:26;3.07;;;2.57;;
11588;SDS011;5850;51.360;12.362;2023-03-20T01:43:05;3.60;;;2.87;;
11588;SDS011;5850;51.360;12.362;2023-03-20T01:46:02;3.33;;;3.03;;
11588;SDS011;5850;51.360;12.362;2023-03-20T01:51:20;4.07;;;3.03;;
11588;SDS011;5850;51.360;12.362;2023-03-20T01:53:57;3.03;;;2.73;;
11588;SDS011;5850;51.360;12.362;2023-03-20T01:56:34;4.50;;;3.17;;
11588;SDS011;5850;51.360;12.362;2023-03-20T01:59:11;3.27;;;2.70;;
11588;SDS011;5850;51.360;12.362;2023-03-20T02:01:47;3.67;;;3.13;;
11588;SDS011;5850;51.360;12.362;2023-03-20T02:04:15;3.53;;;3.17;;
11588;SDS011;5850;51.360;12.362;2023-03-20T02:06:50;3.50;;;2.80;;
11588;SDS011;5850;51.360;12.362;2023-03-20T02:09:18;3.33;;;2.93;;
11588;SDS011;5850;51.360;12.362;2023-03-20T02:11:47;3.83;;;2.80;;
11588;SDS011;5850;51.360;12.362;2023-03-20T02:14:16;3.30;;;3.00;;
11588;SDS011;5850;51.360;12.362;2023-03-20T02:16:45;3.00;;;2.70;;
11588;SDS011;5850;51.360;12.362;2023-03-20T02:19:16;4.50;;;3.10;;
11588;SDS011;5850;51.360;12.362;2023-03-20T02:22:00;3.17;;;2.50;;
11588;SDS011;5850;51.360;12.362;2023-03-20T02:34:53;3.97;;;3.13;;
11588;SDS011;5850;51.360;12.362;2023-03-20T02:37:21;3.50;;;3.20;;
11588;SDS011;5850;51.360;12.362;2023-03-20T02:49:10;5.00;;;3.30;;
11588;SDS011;5850;51.360;12.362;2023-03-20T02:52:04;4.30;;;3.37;;
11588;SDS011;5850;51.360;12.362;2023-03-20T03:00:32;5.67;;;3.53;;
11588;SDS011;5850;51.360;12.362;2023-03-20T03:03:10;3.63;;;3.33;;
11588;SDS011;5850;51.360;12.362;2023-03-20T03:05:47;3.93;;;3.40;;
11588;SDS011;5850;51.360;12.362;2023-03-20T03:08:28;3.97;;;3.67;;
11588;SDS011;5850;51.360;12.362;2023-03-20T03:11:06;3.83;;;3.37;;
11588;SDS011;5850;51.360;12.362;2023-03-20T03:13:37;4.03;;;3.73;;
11588;SDS011;5850;51.360;12.362;2023-03-20T03:16:21;4.73;;;3.70;;
11588;SDS011;5850;51.360;12.362;2023-03-20T03:19:01;5.20;;;3.57;;
11588;SDS011;5850;51.360;12.362;2023-03-20T03:21:40;3.93;;;3.57;;
11588;SDS011;5850;51.360;12.362;2023-03-20T03:27:17;4.17;;;3.77;;
11588;SDS011;5850;51.360;12.362;2023-03-20T03:29:57;5.40;;;4.13;;
11588;SDS011;5850;51.360;12.362;2023-03-20T03:32:40;4.60;;;4.10;;
11588;SDS011;5850;51.360;12.362;2023-03-20T03:35:21;6.10;;;4.13;;
11588;SDS011;5850;51.360;12.362;2023-03-20T03:37:56;4.17;;;3.73;;
11588;SDS011;5850;51.360;12.362;2023-03-20T03:40:38;4.47;;;3.43;;
11588;SDS011;5850;51.360;12.362;2023-03-20T03:45:48;4.37;;;3.87;;
11588;SDS011;5850;51.360;12.362;2023-03-20T03:48:30;4.10;;;3.80;;
11588;SDS011;5850;51.360;12.362;2023-03-20T03:51:05;5.43;;;4.30;;
11588;SDS011;5850;51.360;12.362;2023-03-20T03:53:39;4.47;;;4.07;;
11588;SDS011;5850;51.360;12.362;2023-03-20T03:56:14;4.53;;;4.10;;
11588;SDS011;5850;51.360;12.362;2023-03-20T03:58:47;4.70;;;4.30;;
11588;SDS011;5850;51.360;12.362;2023-03-20T04:01:19;5.10;;;4.10;;
11588;SDS011;5850;51.360;12.362;2023-03-20T04:03:49;4.20;;;3.83;;
11588;SDS011;5850;51.360;12.362;2023-03-20T04:06:26;4.30;;;3.90;;
11588;SDS011;5850;51.360;12.362;2023-03-20T04:08:55;5.17;;;4.20;;
11588;SDS011;5850;51.360;12.362;2023-03-20T04:11:24;7.60;;;4.57;;
11588;SDS011;5850;51.360;12.362;2023-03-20T04:13:54;4.77;;;4.37;;
11588;SDS011;5850;51.360;12.362;2023-03-20T04:16:23;4.97;;;4.43;;
11588;SDS011;5850;51.360;12.362;2023-03-20T04:18:52;4.93;;;4.33;;
11588;SDS011;5850;51.360;12.362;2023-03-20T04:21:21;4.90;;;4.40;;
11588;SDS011;5850;51.360;12.362;2023-03-20T04:23:49;4.40;;;4.00;;
11588;SDS011;5850;51.360;12.362;2023-03-20T04:26:18;6.77;;;4.70;;
11588;SDS011;5850;51.360;12.362;2023-03-20T04:28:47;7.00;;;5.40;;
11588;SDS011;5850;51.360;12.362;2023-03-20T04:31:16;5.67;;;5.17;;
11588;SDS011;5850;51.360;12.362;2023-03-20T04:33:45;7.23;;;6.00;;
11588;SDS011;5850;51.360;12.362;2023-03-20T04:36:13;6.10;;;4.77;;
11588;SDS011;5850;51.360;12.362;2023-03-20T04:38:42;5.70;;;5.10;;
11588;SDS011;5850;51.360;12.362;2023-03-20T04:41:10;7.43;;;6.00;;
11588;SDS011;5850;51.360;12.362;2023-03-20T04:43:38;6.37;;;5.77;;
11588;SDS011;5850;51.360;12.362;2023-03-20T04:46:06;6.47;;;5.27;;
11588;SDS011;5850;51.360;12.362;2023-03-20T04:48:35;5.73;;;5.00;;
11588;SDS011;5850;51.360;12.362;2023-03-20T04:51:04;6.13;;;5.53;;
11588;SDS011;5850;51.360;12.362;2023-03-20T04:53:32;7.70;;;6.20;;
11588;SDS011;5850;51.360;12.362;2023-03-20T04:56:00;7.70;;;5.60;;
11588;SDS011;5850;51.360;12.362;2023-03-20T04:58:29;6.57;;;6.00;;
11588;SDS011;5850;51.360;12.362;2023-03-20T05:00:57;7.17;;;6.47;;
11588;SDS011;5850;51.360;12.362;2023-03-20T05:03:26;6.73;;;6.03;;
11588;SDS011;5850;51.360;12.362;2023-03-20T05:05:54;7.40;;;6.40;;
11588;SDS011;5850;51.360;12.362;2023-03-20T05:08:22;6.20;;;5.60;;
11588;SDS011;5850;51.360;12.362;2023-03-20T05:10:51;7.00;;;6.33;;
11588;SDS011;5850;51.360;12.362;2023-03-20T05:13:20;6.17;;;5.57;;
11588;SDS011;5850;51.360;12.362;2023-03-20T05:15:48;6.13;;;5.10;;
11588;SDS011;5850;51.360;12.362;2023-03-20T05:18:17;6.30;;;5.70;;
11588;SDS011;5850;51.360;12.362;2023-03-20T05:20:45;5.93;;;5.43;;
11588;SDS011;5850;51.360;12.362;2023-03-20T05:23:16;6.10;;;5.50;;
11588;SDS011;5850;51.360;12.362;2023-03-20T05:25:44;7.47;;;6.57;;
11588;SDS011;5850;51.360;12.362;2023-03-20T05:28:12;6.60;;;5.90;;
11588;SDS011;5850;51.360;12.362;2023-03-20T05:33:17;6.97;;;5.70;;
11588;SDS011;5850;51.360;12.362;2023-03-20T05:35:45;6.43;;;5.83;;
11588;SDS011;5850;51.360;12.362;2023-03-20T05:38:14;6.80;;;5.80;;
11588;SDS011;5850;51.360;12.362;2023-03-20T05:40:42;6.93;;;5.93;;
11588;SDS011;5850;51.360;12.362;2023-03-20T05:43:10;6.43;;;5.80;;
11588;SDS011;5850;51.360;12.362;2023-03-20T05:45:39;6.40;;;5.73;;
11588;SDS011;5850;51.360;12.362;2023-03-20T05:48:09;6.20;;;5.60;;
11588;SDS011;5850;51.360;12.362;2023-03-20T05:50:38;7.70;;;6.03;;
11588;SDS011;5850;51.360;12.362;2023-03-20T05:53:06;6.83;;;6.17;;
11588;SDS011;5850;51.360;12.362;2023-03-20T05:55:34;6.67;;;6.07;;
11588;SDS011;5850;51.360;12.362;2023-03-20T05:58:03;6.47;;;5.47;;
11588;SDS011;5850;51.360;12.362;2023-03-20T06:00:32;6.73;;;6.10;;
11588;SDS011;5850;51.360;12.362;2023-03-20T06:03:00;5.40;;;4.90;;
11588;SDS011;5850;51.360;12.362;2023-03-20T06:05:29;8.43;;;6.13;;
11588;SDS011;5850;51.360;12.362;2023-03-20T06:07:57;5.77;;;5.27;;
11588;SDS011;5850;51.360;12.362;2023-03-20T06:10:26;6.43;;;5.80;;
11588;SDS011;5850;51.360;12.362;2023-03-20T06:12:55;6.20;;;5.60;;
11588;SDS011;5850;51.360;12.362;2023-03-20T06:15:26;5.87;;;5.27;;
11588;SDS011;5850;51.360;12.362;2023-03-20T06:17:56;5.37;;;4.87;;
11588;SDS011;5850;51.360;12.362;2023-03-20T06:20:25;6.17;;;5.20;;
11588;SDS011;5850;51.360;12.362;2023-03-20T06:22:53;5.83;;;5.30;;
11588;SDS011;5850;51.360;12.362;2023-03-20T06:25:22;6.50;;;5.63;;
11588;SDS011;5850;51.360;12.362;2023-03-20T06:27:50;5.40;;;4.90;;
11588;SDS011;5850;51.360;12.362;2023-03-20T06:30:19;5.80;;;4.93;;
11588;SDS011;5850;51.360;12.362;2023-03-20T06:32:47;6.17;;;4.77;;
11588;SDS011;5850;51.360;12.362;2023-03-20T06:35:15;5.30;;;4.80;;
11588;SDS011;5850;51.360;12.362;2023-03-20T06:37:44;5.07;;;4.50;;
11588;SDS011;5850;51.360;12.362;2023-03-20T06:40:12;5.80;;;5.20;;
11588;SDS011;5850;51.360;12.362;2023-03-20T06:42:40;5.37;;;4.80;;
11588;SDS011;5850;51.360;12.362;2023-03-20T06:45:09;6.63;;;5.13;;
11588;SDS011;5850;51.360;12.362;2023-03-20T06:47:38;5.47;;;4.87;;
11588;SDS011;5850;51.360;12.362;2023-03-20T06:50:07;5.60;;;5.10;;
11588;SDS011;5850;51.360;12.362;2023-03-20T06:52:36;6.00;;;5.40;;
11588;SDS011;5850;51.360;12.362;2023-03-20T06:55:05;5.53;;;4.87;;
11588;SDS011;5850;51.360;12.362;2023-03-20T06:57:34;5.93;;;5.10;;
11588;SDS011;5850;51.360;12.362;2023-03-20T07:00:04;5.40;;;4.90;;
11588;SDS011;5850;51.360;12.362;2023-03-20T07:02:34;5.97;;;5.37;;
11588;SDS011;5850;51.360;12.362;2023-03-20T07:05:02;6.40;;;5.20;;
11588;SDS011;5850;51.360;12.362;2023-03-20T07:07:32;5.87;;;5.13;;
11588;SDS011;5850;51.360;12.362;2023-03-20T07:10:00;6.00;;;5.40;;
11588;SDS011;5850;51.360;12.362;2023-03-20T07:12:29;6.00;;;5.40;;
11588;SDS011;5850;51.360;12.362;2023-03-20T07:14:58;8.63;;;6.47;;
11588;SDS011;5850;51.360;12.362;2023-03-20T07:17:26;11.17;;;8.87;;
11588;SDS011;5850;51.360;12.362;2023-03-20T07:19:54;14.77;;;10.60;;
11588;SDS011;5850;51.360;12.362;2023-03-20T07:22:24;13.83;;;10.10;;
11588;SDS011;5850;51.360;12.362;2023-03-20T07:24:54;14.43;;;10.53;;
11588;SDS011;5850;51.360;12.362;2023-03-20T07:27:23;15.77;;;11.20;;
11588;SDS011;5850;51.360;12.362;2023-03-20T07:29:52;16.90;;;11.43;;
11588;SDS011;5850;51.360;12.362;2023-03-20T07:32:20;17.60;;;12.77;;
11588;SDS011;5850;51.360;12.362;2023-03-20T07:34:48;16.80;;;12.50;;
11588;SDS011;5850;51.360;12.362;2023-03-20T07:37:16;16.00;;;12.23;;
11588;SDS011;5850;51.360;12.362;2023-03-20T07:39:45;18.23;;;13.00;;
11588;SDS011;5850;51.360;12.362;2023-03-20T07:42:13;18.70;;;14.10;;
11588;SDS011;5850;51.360;12.362;2023-03-20T07:44:42;20.53;;;15.37;;
11588;SDS011;5850;51.360;12.362;2023-03-20T07:47:11;19.73;;;14.63;;
11588;SDS011;5850;51.360;12.362;2023-03-20T07:49:39;20.57;;;14.27;;
11588;SDS011;5850;51.360;12.362;2023-03-20T07:52:08;21.00;;;14.90;;
11588;SDS011;5850;51.360;12.362;2023-03-20T07:54:36;19.30;;;14.50;;
11588;SDS011;5850;51.360;12.362;2023-03-20T07:57:04;22.03;;;15.13;;
11588;SDS011;5850;51.360;12.362;2023-03-20T07:59:32;22.77;;;14.83;;
11588;SDS011;5850;51.360;12.362;2023-03-20T08:02:01;24.57;;;16.70;;
11588;SDS011;5850;51.360;12.362;2023-03-20T08:04:29;26.07;;;18.50;;
11588;SDS011;5850;51.360;12.362;2023-03-20T08:06:58;27.20;;;17.33;;
11588;SDS011;5850;51.360;12.362;2023-03-20T08:09:26;24.23;;;17.40;;
11588;SDS011;5850;51.360;12.362;2023-03-20T08:11:54;30.30;;;18.97;;
11588;SDS011;5850;51.360;12.362;2023-03-20T08:14:23;26.47;;;17.30;;
11588;SDS011;5850;51.360;12.362;2023-03-20T08:16:51;27.37;;;20.00;;
11588;SDS011;5850;51.360;12.362;2023-03-20T08:19:39;29.00;;;20.60;;
11588;SDS011;5850;51.360;12.362;2023-03-20T08:22:07;31.87;;;21.23;;
11588;SDS011;5850;51.360;12.362;2023-03-20T08:24:36;30.17;;;19.60;;
11588;SDS011;5850;51.360;12.362;2023-03-20T08:27:04;30.00;;;20.03;;
11588;SDS011;5850;51.360;12.362;2023-03-20T08:29:32;29.40;;;20.07;;
11588;SDS011;5850;51.360;12.362;2023-03-20T08:32:01;34.37;;;22.50;;
11588;SDS011;5850;51.360;12.362;2023-03-20T08:34:30;34.87;;;22.53;;
11588;SDS011;5850;51.360;12.362;2023-03-20T08:36:58;32.10;;;22.50;;
11588;SDS011;5850;51.360;12.362;2023-03-20T08:39:29;29.73;;;21.20;;
11588;SDS011;5850;51.360;12.362;2023-03-20T08:41:58;33.13;;;22.07;;
11588;SDS011;5850;51.360;12.362;2023-03-20T08:44:26;31.23;;;21.87;;
11588;SDS011;5850;51.360;12.362;2023-03-20T08:46:54;35.37;;;23.73;;
11588;SDS011;5850;51.360;12.362;2023-03-20T08:49:23;34.33;;;22.80;;
11588;SDS011;5850;51.360;12.362;2023-03-20T08:51:53;37.07;;;23.30;;
11588;SDS011;5850;51.360;12.362;2023-03-20T08:54:21;40.60;;;25.07;;
11588;SDS011;5850;51.360;12.362;2023-03-20T08:56:50;36.10;;;23.87;;
11588;SDS011;5850;51.360;12.362;2023-03-20T08:59:18;34.87;;;23.23;;
11588;SDS011;5850;51.360;12.362;2023-03-20T09:01:47;36.97;;;24.43;;
11588;SDS011;5850;51.360;12.362;2023-03-20T09:04:16;36.40;;;25.57;;
11588;SDS011;5850;51.360;12.362;2023-03-20T09:06:44;37.43;;;24.80;;
11588;SDS011;5850;51.360;12.362;2023-03-20T09:09:12;34.67;;;23.83;;
11588;SDS011;5850;51.360;12.362;2023-03-20T09:11:43;38.17;;;25.07;;
11588;SDS011;5850;51.360;12.362;2023-03-20T09:14:12;38.27;;;25.20;;
11588;SDS011;5850;51.360;12.362;2023-03-20T09:16:41;36.77;;;24.40;;
11588;SDS011;5850;51.360;12.362;2023-03-20T09:19:09;43.67;;;25.70;;
11588;SDS011;5850;51.360;12.362;2023-03-20T09:21:38;34.77;;;23.30;;
11588;SDS011;5850;51.360;12.362;2023-03-20T09:24:06;41.30;;;25.57;;
11588;SDS011;5850;51.360;12.362;2023-03-20T09:26:35;36.37;;;24.70;;
11588;SDS011;5850;51.360;12.362;2023-03-20T09:29:04;39.03;;;24.33;;
11588;SDS011;5850;51.360;12.362;2023-03-20T09:31:32;37.07;;;23.77;;
11588;SDS011;5850;51.360;12.362;2023-03-20T09:34:01;37.10;;;24.20;;
11588;SDS011;5850;51.360;12.362;2023-03-20T09:36:30;38.87;;;25.40;;
11588;SDS011;5850;51.360;12.362;2023-03-20T09:38:59;41.00;;;25.07;;
11588;SDS011;5850;51.360;12.362;2023-03-20T09:41:27;36.10;;;24.37;;
11588;SDS011;5850;51.360;12.362;2023-03-20T09:56:02;41.27;;;24.93;;
11588;SDS011;5850;51.360;12.362;2023-03-20T09:58:33;40.23;;;24.03;;
11588;SDS011;5850;51.360;12.362;2023-03-20T10:01:04;38.30;;;24.23;;
11588;SDS011;5850;51.360;12.362;2023-03-20T10:06:23;34.97;;;23.33;;
11588;SDS011;5850;51.360;12.362;2023-03-20T10:08:52;36.07;;;22.33;;
11588;SDS011;5850;51.360;12.362;2023-03-20T10:11:28;42.57;;;24.97;;
11588;SDS011;5850;51.360;12.362;2023-03-20T10:28:10;37.63;;;24.67;;
11588;SDS011;5850;51.360;12.362;2023-03-20T10:33:44;37.87;;;24.03;;
11588;SDS011;5850;51.360;12.362;2023-03-20T10:36:36;36.87;;;23.00;;
11588;SDS011;5850;51.360;12.362;2023-03-20T10:39:28;37.50;;;24.67;;
11588;SDS011;5850;51.360;12.362;2023-03-20T10:41:59;38.50;;;24.47;;
11588;SDS011;5850;51.360;12.362;2023-03-20T10:44:38;38.63;;;25.07;;
11588;SDS011;5850;51.360;12.362;2023-03-20T10:47:13;38.00;;;24.83;;
11588;SDS011;5850;51.360;12.362;2023-03-20T10:49:46;37.50;;;25.00;;
11588;SDS011;5850;51.360;12.362;2023-03-20T10:52:27;42.53;;;26.30;;
11588;SDS011;5850;51.360;12.362;2023-03-20T10:55:02;40.57;;;26.53;;
11588;SDS011;5850;51.360;12.362;2023-03-20T10:57:39;45.63;;;27.80;;
11588;SDS011;5850;51.360;12.362;2023-03-20T11:00:20;40.30;;;26.13;;
11588;SDS011;5850;51.360;12.362;2023-03-20T11:02:51;39.37;;;25.13;;
11588;SDS011;5850;51.360;12.362;2023-03-20T11:05:21;41.67;;;25.07;;
11588;SDS011;5850;51.360;12.362;2023-03-20T11:08:05;41.77;;;26.10;;
11588;SDS011;5850;51.360;12.362;2023-03-20T11:10:39;35.67;;;23.67;;
11588;SDS011;5850;51.360;12.362;2023-03-20T11:18:51;39.20;;;25.80;;
11588;SDS011;5850;51.360;12.362;2023-03-20T11:21:21;42.27;;;26.37;;
11588;SDS011;5850;51.360;12.362;2023-03-20T11:23:55;42.20;;;25.40;;
11588;SDS011;5850;51.360;12.362;2023-03-20T11:26:31;46.57;;;27.03;;
11588;SDS011;5850;51.360;12.362;2023-03-20T11:29:14;45.07;;;28.07;;
11588;SDS011;5850;51.360;12.362;2023-03-20T11:32:02;44.23;;;28.47;;
11588;SDS011;5850;51.360;12.362;2023-03-20T11:34:54;49.60;;;29.07;;
11588;SDS011;5850;51.360;12.362;2023-03-20T11:37:25;59.87;;;32.97;;
11588;SDS011;5850;51.360;12.362;2023-03-20T11:39:56;55.50;;;32.10;;
11588;SDS011;5850;51.360;12.362;2023-03-20T11:42:27;50.77;;;30.57;;
11588;SDS011;5850;51.360;12.362;2023-03-20T11:44:57;45.53;;;27.93;;
11588;SDS011;5850;51.360;12.362;2023-03-20T11:47:33;46.80;;;28.57;;
11588;SDS011;5850;51.360;12.362;2023-03-20T11:50:04;53.40;;;30.30;;
11588;SDS011;5850;51.360;12.362;2023-03-20T11:52:40;51.87;;;28.87;;
11588;SDS011;5850;51.360;12.362;2023-03-20T11:55:22;48.73;;;29.03;;
11588;SDS011;5850;51.360;12.362;2023-03-20T11:57:56;46.30;;;28.37;;
11588;SDS011;5850;51.360;12.362;2023-03-20T12:06:25;53.00;;;30.70;;
11588;SDS011;5850;51.360;12.362;2023-03-20T12:08:58;50.80;;;29.57;;
11588;SDS011;5850;51.360;12.362;2023-03-20T12:23:09;45.20;;;27.53;;
11588;SDS011;5850;51.360;12.362;2023-03-20T12:26:03;44.17;;;28.00;;
11588;SDS011;5850;51.360;12.362;2023-03-20T12:28:53;42.93;;;28.23;;
11588;SDS011;5850;51.360;12.362;2023-03-20T12:34:19;44.50;;;26.67;;
11588;SDS011;5850;51.360;12.362;2023-03-20T12:36:54;45.47;;;26.90;;
11588;SDS011;5850;51.360;12.362;2023-03-20T12:39:34;40.00;;;25.90;;
11588;SDS011;5850;51.360;12.362;2023-03-20T12:42:30;42.50;;;27.13;;
11588;SDS011;5850;51.360;12.362;2023-03-20T12:45:11;41.13;;;24.57;;
11588;SDS011;5850;51.360;12.362;2023-03-20T12:48:05;40.40;;;24.73;;
11588;SDS011;5850;51.360;12.362;2023-03-20T12:51:14;36.87;;;24.47;;
11588;SDS011;5850;51.360;12.362;2023-03-20T13:00:25;40.27;;;24.53;;
11588;SDS011;5850;51.360;12.362;2023-03-20T13:02:43;36.30;;;23.93;;
11588;SDS011;5850;51.360;12.362;2023-03-20T13:05:44;34.33;;;22.73;;
11588;SDS011;5850;51.360;12.362;2023-03-20T13:11:57;33.20;;;21.03;;
11588;SDS011;5850;51.360;12.362;2023-03-20T13:22:37;29.00;;;19.53;;
11588;SDS011;5850;51.360;12.362;2023-03-20T13:28:02;34.57;;;22.90;;
11588;SDS011;5850;51.360;12.362;2023-03-20T13:37:06;31.23;;;19.67;;
11588;SDS011;5850;51.360;12.362;2023-03-20T13:42:19;24.87;;;17.03;;
11588;SDS011;5850;51.360;12.362;2023-03-20T13:44:50;22.27;;;15.53;;
11588;SDS011;5850;51.360;12.362;2023-03-20T13:47:26;20.53;;;14.90;;
11588;SDS011;5850;51.360;12.362;2023-03-20T13:50:03;23.07;;;15.40;;
11588;SDS011;5850;51.360;12.362;2023-03-20T13:53:02;25.17;;;15.43;;
11588;SDS011;5850;51.360;12.362;2023-03-20T13:55:58;19.03;;;13.87;;
11588;SDS011;5850;51.360;12.362;2023-03-20T14:01:54;18.83;;;12.83;;
11588;SDS011;5850;51.360;12.362;2023-03-20T14:04:40;18.70;;;13.00;;
11588;SDS011;5850;51.360;12.362;2023-03-20T14:07:26;18.13;;;12.60;;
11588;SDS011;5850;51.360;12.362;2023-03-20T14:10:31;19.57;;;13.27;;
11588;SDS011;5850;51.360;12.362;2023-03-20T14:12:56;18.03;;;12.30;;
11588;SDS011;5850;51.360;12.362;2023-03-20T14:15:44;20.07;;;13.40;;
11588;SDS011;5850;51.360;12.362;2023-03-20T14:18:21;22.77;;;15.40;;
11588;SDS011;5850;51.360;12.362;2023-03-20T14:20:53;21.40;;;15.70;;
11588;SDS011;5850;51.360;12.362;2023-03-20T14:23:38;21.87;;;14.73;;
11588;SDS011;5850;51.360;12.362;2023-03-20T14:26:28;18.27;;;14.13;;
11588;SDS011;5850;51.360;12.362;2023-03-20T14:29:18;20.90;;;15.27;;
11588;SDS011;5850;51.360;12.362;2023-03-20T14:32:45;19.10;;;14.07;;
11588;SDS011;5850;51.360;12.362;2023-03-20T14:38:00;18.83;;;13.93;;
11588;SDS011;5850;51.360;12.362;2023-03-20T14:50:00;17.10;;;12.73;;
11588;SDS011;5850;51.360;12.362;2023-03-20T14:57:56;18.40;;;12.87;;
11588;SDS011;5850;51.360;12.362;2023-03-20T15:00:33;17.53;;;12.10;;
11588;SDS011;5850;51.360;12.362;2023-03-20T15:03:15;17.13;;;11.97;;
11588;SDS011;5850;51.360;12.362;2023-03-20T15:05:44;17.53;;;12.20;;
11588;SDS011;5850;51.360;12.362;2023-03-20T15:08:16;17.23;;;11.00;;
11588;SDS011;5850;51.360;12.362;2023-03-20T15:10:52;16.13;;;11.77;;
11588;SDS011;5850;51.360;12.362;2023-03-20T15:13:24;16.63;;;11.43;;
11588;SDS011;5850;51.360;12.362;2023-03-20T15:15:57;16.50;;;11.73;;
11588;SDS011;5850;51.360;12.362;2023-03-20T15:18:45;16.40;;;11.37;;
11588;SDS011;5850;51.360;12.362;2023-03-20T15:21:20;17.00;;;11.53;;
11588;SDS011;5850;51.360;12.362;2023-03-20T15:24:06;13.53;;;10.70;;
11588;SDS011;5850;51.360;12.362;2023-03-20T15:26:34;16.63;;;11.80;;
11588;SDS011;5850;51.360;12.362;2023-03-20T15:29:04;18.50;;;13.70;;
11588;SDS011;5850;51.360;12.362;2023-03-20T15:31:37;18.43;;;12.60;;
11588;SDS011;5850;51.360;12.362;2023-03-20T15:34:08;18.90;;;12.73;;
11588;SDS011;5850;51.360;12.362;2023-03-20T15:36:43;22.50;;;15.27;;
11588;SDS011;5850;51.360;12.362;2023-03-20T15:39:16;17.43;;;12.87;;
11588;SDS011;5850;51.360;12.362;2023-03-20T15:41:51;21.80;;;13.60;;
11588;SDS011;5850;51.360;12.362;2023-03-20T15:47:02;19.33;;;12.87;;
11588;SDS011;5850;51.360;12.362;2023-03-20T15:49:38;17.93;;;13.40;;
11588;SDS011;5850;51.360;12.362;2023-03-20T15:54:51;20.13;;;13.93;;
11588;SDS011;5850;51.360;12.362;2023-03-20T15:57:24;18.97;;;13.70;;
11588;SDS011;5850;51.360;12.362;2023-03-20T16:00:05;20.47;;;13.93;;
11588;SDS011;5850;51.360;12.362;2023-03-20T16:02:43;16.97;;;12.87;;
11588;SDS011;5850;51.360;12.362;2023-03-20T16:05:14;18.03;;;12.10;;
11588;SDS011;5850;51.360;12.362;2023-03-20T16:07:44;15.20;;;11.23;;
11588;SDS011;5850;51.360;12.362;2023-03-20T16:10:17;13.57;;;9.93;;
11588;SDS011;5850;51.360;12.362;2023-03-20T16:13:05;13.17;;;10.00;;
11588;SDS011;5850;51.360;12.362;2023-03-20T16:15:38;14.50;;;9.90;;
11588;SDS011;5850;51.360;12.362;2023-03-20T16:18:07;13.90;;;9.20;;
11588;SDS011;5850;51.360;12.362;2023-03-20T16:20:43;10.87;;;8.53;;
11588;SDS011;5850;51.360;12.362;2023-03-20T16:23:31;11.27;;;8.17;;
11588;SDS011;5850;51.360;12.362;2023-03-20T16:26:05;10.07;;;8.17;;
11588;SDS011;5850;51.360;12.362;2023-03-20T16:28:37;12.20;;;7.70;;
11588;SDS011;5850;51.360;12.362;2023-03-20T16:31:07;10.57;;;8.03;;
11588;SDS011;5850;51.360;12.362;2023-03-20T16:33:42;11.27;;;8.23;;
11588;SDS011;5850;51.360;12.362;2023-03-20T16:36:15;10.63;;;7.27;;
11588;SDS011;5850;51.360;12.362;2023-03-20T16:38:55;12.07;;;7.47;;
11588;SDS011;5850;51.360;12.362;2023-03-20T16:41:43;10.23;;;7.07;;
11588;SDS011;5850;51.360;12.362;2023-03-20T16:44:19;11.10;;;7.67;;
11588;SDS011;5850;51.360;12.362;2023-03-20T16:52:11;10.00;;;6.90;;
11588;SDS011;5850;51.360;12.362;2023-03-20T16:54:42;8.47;;;6.40;;
11588;SDS011;5850;51.360;12.362;2023-03-20T16:57:15;9.10;;;6.53;;
11588;SDS011;5850;51.360;12.362;2023-03-20T16:59:45;9.83;;;7.20;;
11588;SDS011;5850;51.360;12.362;2023-03-20T17:02:31;9.57;;;6.30;;
11588;SDS011;5850;51.360;12.362;2023-03-20T17:05:05;8.73;;;6.27;;
11588;SDS011;5850;51.360;12.362;2023-03-20T17:07:40;8.07;;;5.83;;
11588;SDS011;5850;51.360;12.362;2023-03-20T17:12:44;8.80;;;6.50;;
11588;SDS011;5850;51.360;12.362;2023-03-20T17:15:19;7.50;;;6.20;;
11588;SDS011;5850;51.360;12.362;2023-03-20T17:17:50;8.20;;;6.63;;
11588;SDS011;5850;51.360;12.362;2023-03-20T17:22:48;9.23;;;6.57;;
11588;SDS011;5850;51.360;12.362;2023-03-20T17:25:16;9.73;;;6.70;;
11588;SDS011;5850;51.360;12.362;2023-03-20T17:27:45;9.97;;;7.10;;
11588;SDS011;5850;51.360;12.362;2023-03-20T17:30:16;8.80;;;6.37;;
11588;SDS011;5850;51.360;12.362;2023-03-20T17:32:50;8.57;;;6.90;;
11588;SDS011;5850;51.360;12.362;2023-03-20T17:35:19;9.33;;;7.07;;
11588;SDS011;5850;51.360;12.362;2023-03-20T17:37:47;10.33;;;7.47;;
11588;SDS011;5850;51.360;12.362;2023-03-20T17:40:17;10.80;;;7.10;;
11588;SDS011;5850;51.360;12.362;2023-03-20T17:42:47;9.63;;;6.70;;
11588;SDS011;5850;51.360;12.362;2023-03-20T17:45:16;9.60;;;6.50;;
11588;SDS011;5850;51.360;12.362;2023-03-20T17:47:46;9.83;;;7.00;;
11588;SDS011;5850;51.360;12.362;2023-03-20T17:50:20;8.23;;;7.00;;
11588;SDS011;5850;51.360;12.362;2023-03-20T17:52:52;11.13;;;7.73;;